Bloomfield, NM

2:11 AM MST on January 31, 2015 (GMT -0700)
Pagosa Springs | Change Station
CLOSE
Current Station
Airport
Location: Pagosa Springs,
Elevation: 7657 ft
Nearby Weather Stations
Active Advisory: Winter Weather Advisory

Elev 7657 ft 37.29 °N, 107.06 °W | Updated 16 minutes ago

Snow
Snow
34 °F
Feels Like 34 °F
N
0
Wind Variable Wind from North

Today
High -- | Low -- °F
--% Chance of Precip.
Yesterday
High -- | Low -- °F
Precip. -- in
7:14 AM 5:36 PM
Waxing Gibbous, 88% visible
Pressure 29.95 in
Visibility 4.0 miles
Clouds Mostly Cloudy 1100 ft
Mostly Cloudy 1900 ft
Overcast 3100 ft
Dew Point 34 °F
Humidity 100%
Rainfall 0.00 in
Snow Depth Not available.
UV 0 out of 12
Pollen .20 out of 12
Air Quality Not available.
Flu Activity Not available.
METAR KPSO 310855Z AUTO 00000KT 4SM -SN BKN011 BKN019 OVC031 01/01 A2995 RMK AO2 T00110011

More Conditions Fewer Conditions

Pressure 29.95 in
Visibility 4.0 miles
Clouds Mostly Cloudy 1100 ft
Mostly Cloudy 1900 ft
Overcast 3100 ft
Dew Point 34 °F
Humidity 100%
Rainfall 0.00 in
Snow Depth Not available.
UV 0 out of 12
Pollen .20 out of 12
Air Quality Not available.
Flu Activity Not available.
METAR KPSO 310855Z AUTO 00000KT 4SM -SN BKN011 BKN019 OVC031 01/01 A2995 RMK AO2 T00110011

More Conditions Fewer Conditions

Nowcast | as of 1:56 am MST on January 31, 2015

Mostly light rain and snow will fall over western New Mexico through the night. Roads near the Continental Divide...including Interstate 40 from the Arizona border to Laguna Pueblo and Highway 550 northwest of Cuba...will see a variety of hazardous conditions including some ice...packed snow and slush. Fog will accompany the precipitation and may drop the visibility below 1 mile at times. Snow accumulations over an inch look to be limited to the highest terrain...including the Chuska Mountains and the highest peaks in the Gila. For the latest Road conditions visit N M roads dot com or dial 511.

×

10-Day Weather Forecast

Almanac

Astronomy

Jan. 31, 2015 Rise Set
Actual Time
Civil Twilight
Nautical Twilight
Astronomical Twilight
Moon
Length of Visible Light
Length of Day
Tomorrow will be .
, % of the Moon is Illuminated

Today's Extremes

State Highs State Lows

Community

WunderPhotos

Upload Photos

1,792,021 photos uploaded!

WunderBlogs® & News

Nearby

Air Quality

  Air Quality AQ Index Pollutant
Not available.

Snow Depth

Station Depth Elevation

Earthquake Activity

City Distance Mag. Time & Date
Minimum magnitude displayed is 2.5.

Coastal Water Temperatures

Place Temperature

Nearby Weather Stations